Time;durP1;ratioP1;P1;durP2;ratioP2;P2;SDS_P1;SDS_P2;PMS_P1;PMS_P2;Temp;Humidity;BMP_temperature;BMP_pressure;BME280_temperature;BME280_humidity;BME280_pressure;Samples;Min_cycle;Max_cycle;Signal;HPM_P1;HPM_P2
2023/09/24 00:00:28;;;;;;;1.55;0.70;;;20.10;99.90;;;;;;5011970;28;20450;-39
2023/09/24 00:02:53;;;;;;;1.35;0.80;;;20.10;99.90;;;;;;5011978;28;20281;-39
2023/09/24 00:05:19;;;;;;;1.08;0.70;;;20.10;99.90;;;;;;5011117;28;20072;-39
2023/09/24 00:07:46;;;;;;;1.42;0.80;;;20.10;99.90;;;;;;5011803;28;20033;-43
2023/09/24 00:10:12;;;;;;;2.88;1.00;;;20.00;99.90;;;;;;5011816;28;20026;-39
2023/09/24 00:12:38;;;;;;;1.40;0.80;;;20.00;99.90;;;;;;5011705;28;20025;-38
2023/09/24 00:15:04;;;;;;;0.82;0.60;;;20.00;99.90;;;;;;5011495;28;20034;-39
2023/09/24 00:17:30;;;;;;;1.13;0.63;;;20.00;99.90;;;;;;5011601;28;20026;-39
2023/09/24 00:19:56;;;;;;;1.80;0.80;;;20.00;99.90;;;;;;5011629;28;20022;-40
2023/09/24 00:22:21;;;;;;;2.22;0.73;;;20.00;99.90;;;;;;5011615;28;20029;-40
2023/09/24 00:24:47;;;;;;;1.23;0.70;;;20.00;99.90;;;;;;5011381;28;20022;-40
2023/09/24 00:27:12;;;;;;;1.48;0.90;;;20.00;99.90;;;;;;5011521;28;20026;-42
2023/09/24 00:29:38;;;;;;;1.50;0.75;;;20.00;99.90;;;;;;5011568;28;20030;-41
2023/09/24 00:32:04;;;;;;;1.00;0.68;;;20.00;99.90;;;;;;5011512;28;20080;-38
2023/09/24 00:34:29;;;;;;;2.53;0.77;;;20.00;99.90;;;;;;5011198;28;20376;-39
2023/09/24 00:36:57;;;;;;;1.50;0.90;;;20.00;99.90;;;;;;5011394;28;20033;-38
2023/09/24 00:39:23;;;;;;;1.45;0.70;;;20.00;99.90;;;;;;5011855;28;20029;-38
2023/09/24 00:41:51;;;;;;;2.50;0.70;;;20.00;99.90;;;;;;5011490;28;20442;-39
2023/09/24 00:44:17;;;;;;;5.60;1.00;;;20.00;99.90;;;;;;5011286;28;20034;-40
2023/09/24 00:46:44;;;;;;;3.22;0.98;;;19.90;99.90;;;;;;5011324;28;20439;-42
2023/09/24 00:49:13;;;;;;;2.08;1.00;;;19.90;99.90;;;;;;5011301;28;20050;-41
2023/09/24 00:51:40;;;;;;;1.15;0.80;;;19.90;99.90;;;;;;5011357;28;20018;-37
2023/09/24 00:54:06;;;;;;;1.05;0.70;;;19.90;99.90;;;;;;5011436;28;20062;-39
2023/09/24 00:56:33;;;;;;;1.80;0.80;;;19.90;99.90;;;;;;5011074;28;20033;-41
2023/09/24 00:58:59;;;;;;;1.67;0.75;;;19.90;99.90;;;;;;5011339;28;20018;-42
2023/09/24 01:01:25;;;;;;;1.85;0.90;;;19.90;99.90;;;;;;5011613;28;20175;-38
2023/09/24 01:03:51;;;;;;;0.82;0.50;;;19.90;99.90;;;;;;5011158;28;20026;-41
2023/09/24 01:06:17;;;;;;;2.03;0.82;;;19.90;99.90;;;;;;5011059;28;20026;-39
2023/09/24 01:08:43;;;;;;;1.52;0.88;;;19.90;99.90;;;;;;5011208;28;20156;-43
2023/09/24 01:11:10;;;;;;;2.90;0.73;;;19.90;99.90;;;;;;5011181;28;20395;-42
2023/09/24 01:13:43;;;;;;;1.52;0.70;;;19.90;99.90;;;;;;5011132;28;20026;-43
2023/09/24 01:16:10;;;;;;;1.55;0.93;;;19.90;99.90;;;;;;5011545;28;20491;-41
2023/09/24 01:18:39;;;;;;;2.00;0.93;;;19.90;99.90;;;;;;5014853;28;20061;-39
2023/09/24 01:21:15;;;;;;;1.83;0.90;;;19.90;99.90;;;;;;5015225;28;20029;-45
2023/09/24 01:23:44;;;;;;;1.65;0.90;;;19.90;99.90;;;;;;4997112;28;20022;-40
2023/09/24 01:26:10;;;;;;;3.08;1.00;;;19.90;99.90;;;;;;5014452;28;20030;-41
2023/09/24 01:28:37;;;;;;;2.22;0.82;;;19.80;99.90;;;;;;5014609;28;20022;-37
2023/09/24 01:31:03;;;;;;;1.30;0.70;;;19.80;99.90;;;;;;5014621;28;20390;-41
2023/09/24 01:33:31;;;;;;;1.88;0.90;;;19.80;99.90;;;;;;5014490;28;20025;-40
2023/09/24 01:35:58;;;;;;;2.28;0.90;;;19.80;99.90;;;;;;5014325;28;20030;-42
2023/09/24 01:38:24;;;;;;;0.90;0.60;;;19.80;99.90;;;;;;5014476;28;20025;-38
2023/09/24 01:40:51;;;;;;;1.42;0.70;;;19.80;99.90;;;;;;5014487;28;20439;-38
2023/09/24 01:43:17;;;;;;;3.67;1.02;;;19.80;99.90;;;;;;5014284;28;20040;-42
2023/09/24 01:45:43;;;;;;;0.98;0.77;;;19.80;99.90;;;;;;5013924;28;20483;-41
2023/09/24 01:48:09;;;;;;;5.90;1.00;;;19.80;99.90;;;;;;5014318;28;20021;-42
2023/09/24 01:50:36;;;;;;;1.27;0.85;;;19.80;99.90;;;;;;5014399;28;20032;-44
2023/09/24 01:53:03;;;;;;;1.52;0.70;;;19.80;99.90;;;;;;5014230;28;20030;-39
2023/09/24 01:55:29;;;;;;;2.15;0.75;;;19.80;99.90;;;;;;5013806;28;20502;-39
2023/09/24 01:57:55;;;;;;;1.20;0.77;;;19.80;99.90;;;;;;5014081;28;20272;-39
2023/09/24 02:00:25;;;;;;;0.93;0.70;;;19.80;99.90;;;;;;5014058;28;20033;-39
2023/09/24 02:02:52;;;;;;;1.13;0.80;;;19.80;99.90;;;;;;5013979;28;20581;-39
2023/09/24 02:05:19;;;;;;;1.58;0.80;;;19.70;99.90;;;;;;5013816;28;20503;-39
2023/09/24 02:07:49;;;;;;;1.13;0.70;;;19.70;99.90;;;;;;4996194;28;20394;-42
2023/09/24 02:10:18;;;;;;;1.30;0.80;;;19.70;99.90;;;;;;5014299;28;20450;-45
2023/09/24 02:12:45;;;;;;;2.65;0.68;;;19.70;99.90;;;;;;5013847;28;20471;-40
2023/09/24 02:15:12;;;;;;;1.35;0.73;;;19.70;99.90;;;;;;5013527;28;20148;-43
2023/09/24 02:17:41;;;;;;;1.30;0.70;;;19.70;99.90;;;;;;5013672;28;20026;-42
2023/09/24 02:20:18;;;;;;;2.53;1.00;;;19.70;99.90;;;;;;5013710;28;20072;-39
2023/09/24 02:22:50;;;;;;;3.22;1.02;;;19.70;99.90;;;;;;5013746;28;20391;-39
2023/09/24 02:25:19;;;;;;;1.45;0.88;;;19.70;99.90;;;;;;5013903;28;20037;-39
2023/09/24 02:27:44;;;;;;;2.28;1.00;;;19.70;99.90;;;;;;5013583;28;20037;-37
2023/09/24 02:30:13;;;;;;;3.78;0.80;;;19.70;99.90;;;;;;5013484;28;20025;-39
2023/09/24 02:32:40;;;;;;;1.40;0.95;;;19.70;99.90;;;;;;5013473;28;20387;-40
2023/09/24 02:35:08;;;;;;;1.85;1.00;;;19.70;99.90;;;;;;5013178;28;20030;-40
2023/09/24 02:37:33;;;;;;;0.80;0.68;;;19.60;99.90;;;;;;5013186;28;20052;-40
2023/09/24 02:39:59;;;;;;;1.40;0.70;;;19.70;99.90;;;;;;5013300;28;20467;-39
2023/09/24 02:42:26;;;;;;;1.42;1.00;;;19.70;99.90;;;;;;5013271;28;20448;-39
2023/09/24 02:44:51;;;;;;;1.83;0.80;;;19.70;99.90;;;;;;5012910;28;20026;-41
2023/09/24 02:47:17;;;;;;;2.45;0.70;;;19.60;99.90;;;;;;4995517;28;20018;-40
2023/09/24 02:49:43;;;;;;;2.97;1.10;;;19.70;99.90;;;;;;5013149;28;20029;-39
2023/09/24 02:52:09;;;;;;;1.63;0.85;;;19.60;99.90;;;;;;5013812;28;20072;-37
2023/09/24 02:54:34;;;;;;;2.25;0.70;;;19.60;99.90;;;;;;5012827;28;20029;-41
2023/09/24 02:57:00;;;;;;;1.40;0.70;;;19.60;99.90;;;;;;5012849;28;20110;-39
2023/09/24 02:59:26;;;;;;;1.35;0.80;;;19.60;99.90;;;;;;5012937;28;20499;-38
2023/09/24 03:01:52;;;;;;;1.92;0.70;;;19.60;99.90;;;;;;5012903;28;20072;-37
2023/09/24 03:04:18;;;;;;;3.30;0.80;;;19.60;99.90;;;;;;5012752;28;20029;-40
2023/09/24 03:06:45;;;;;;;3.63;1.00;;;19.60;99.90;;;;;;5012996;28;20657;-41
2023/09/24 03:09:11;;;;;;;1.30;0.80;;;19.60;99.90;;;;;;5012756;28;20030;-39
2023/09/24 03:11:37;;;;;;;2.95;1.00;;;19.60;99.90;;;;;;5012699;28;20033;-40
2023/09/24 03:14:03;;;;;;;1.48;0.77;;;19.60;99.90;;;;;;5012607;28;20026;-39
2023/09/24 03:16:29;;;;;;;2.55;1.10;;;19.60;99.90;;;;;;5012434;28;20025;-40
2023/09/24 03:18:55;;;;;;;0.98;0.68;;;19.60;99.90;;;;;;5012581;28;20096;-42
2023/09/24 03:21:21;;;;;;;1.25;0.60;;;19.60;99.90;;;;;;5012534;28;20130;-42
2023/09/24 03:23:46;;;;;;;1.08;0.82;;;19.50;99.90;;;;;;5012555;28;20041;-42
2023/09/24 03:26:15;;;;;;;0.98;0.63;;;19.50;99.90;;;;;;5012581;28;20030;-39
2023/09/24 03:28:43;;;;;;;2.17;0.60;;;19.50;99.90;;;;;;5012468;28;20018;-39
2023/09/24 03:31:13;;;;;;;1.83;0.85;;;19.50;99.90;;;;;;5012393;28;20034;-41
2023/09/24 03:33:39;;;;;;;0.80;0.70;;;19.50;99.90;;;;;;5012246;28;20037;-42
2023/09/24 03:36:10;;;;;;;1.25;0.70;;;19.50;99.90;;;;;;5012015;28;20100;-39
2023/09/24 03:38:36;;;;;;;2.50;0.70;;;19.50;99.90;;;;;;5012178;28;20034;-39
2023/09/24 03:41:03;;;;;;;1.05;0.60;;;19.50;99.90;;;;;;5012045;28;20073;-38
2023/09/24 03:43:29;;;;;;;0.98;0.70;;;19.50;99.90;;;;;;5011924;28;20491;-38
2023/09/24 03:45:55;;;;;;;1.45;0.70;;;19.50;99.90;;;;;;5064104;23;20134;-39
2023/09/24 03:48:23;;;;;;;1.70;0.60;;;19.50;99.90;;;;;;5031560;28;20095;-40
2023/09/24 03:50:52;;;;;;;1.27;0.70;;;19.50;99.90;;;;;;5031724;28;20030;-40
2023/09/24 03:53:18;;;;;;;2.97;0.70;;;19.50;99.90;;;;;;5031798;28;20108;-40
2023/09/24 03:55:48;;;;;;;3.28;0.70;;;19.50;99.90;;;;;;5031388;28;20525;-40
2023/09/24 03:58:14;;;;;;;1.05;0.70;;;19.50;99.90;;;;;;5031756;28;20018;-41
2023/09/24 04:00:41;;;;;;;0.95;0.52;;;19.40;99.90;;;;;;5031629;28;20025;-40
2023/09/24 04:03:08;;;;;;;2.03;0.80;;;19.40;99.90;;;;;;5031779;28;20017;-40
2023/09/24 04:05:34;;;;;;;1.30;0.77;;;19.40;99.90;;;;;;5031334;28;20032;-39
2023/09/24 04:08:01;;;;;;;1.38;0.60;;;19.40;99.90;;;;;;5031573;28;20079;-40
2023/09/24 04:10:28;;;;;;;0.88;0.70;;;19.40;99.90;;;;;;5013845;28;20025;-40
2023/09/24 04:12:53;;;;;;;1.33;0.57;;;19.40;99.90;;;;;;5031497;28;20416;-40
2023/09/24 04:15:23;;;;;;;4.05;0.70;;;19.40;99.90;;;;;;5031099;28;20075;-40
2023/09/24 04:17:49;;;;;;;0.77;0.50;;;19.40;99.90;;;;;;5031460;28;20033;-41
2023/09/24 04:20:19;;;;;;;3.42;0.70;;;19.40;99.90;;;;;;5031366;28;20025;-41
2023/09/24 04:22:45;;;;;;;0.75;0.50;;;19.40;99.90;;;;;;5031381;28;20026;-41
2023/09/24 04:25:15;;;;;;;2.38;0.70;;;19.40;99.90;;;;;;5031572;28;20576;-41
2023/09/24 04:27:44;;;;;;;1.42;0.60;;;19.40;99.90;;;;;;5031130;28;20025;-41
2023/09/24 04:30:15;;;;;;;2.00;0.60;;;19.30;99.90;;;;;;5031256;28;20044;-40
2023/09/24 04:32:41;;;;;;;0.60;0.50;;;19.30;99.90;;;;;;5031361;28;20026;-39
2023/09/24 04:35:08;;;;;;;1.55;0.60;;;19.30;99.90;;;;;;5031001;28;20026;-41
2023/09/24 04:37:34;;;;;;;1.20;0.60;;;19.40;99.90;;;;;;5031209;28;20530;-40
2023/09/24 04:39:59;;;;;;;1.17;0.60;;;19.30;99.90;;;;;;5031222;28;20104;-40
2023/09/24 04:42:25;;;;;;;1.05;0.60;;;19.30;99.90;;;;;;5031635;28;20132;-41
2023/09/24 04:44:50;;;;;;;1.20;0.60;;;19.30;99.90;;;;;;5030863;28;20143;-40
2023/09/24 04:47:16;;;;;;;2.53;0.55;;;19.30;99.90;;;;;;5031045;28;20379;-41
2023/09/24 04:49:42;;;;;;;1.73;0.60;;;19.30;99.90;;;;;;5031042;28;20029;-40
2023/09/24 04:52:07;;;;;;;1.52;0.65;;;19.30;99.90;;;;;;5034665;28;20502;-40
2023/09/24 04:54:33;;;;;;;1.00;0.50;;;19.30;99.90;;;;;;5034882;28;20018;-39
2023/09/24 04:56:59;;;;;;;2.38;0.50;;;19.30;99.90;;;;;;5034715;28;20053;-41
2023/09/24 04:59:25;;;;;;;0.60;0.43;;;19.30;99.90;;;;;;5035041;28;20498;-40
2023/09/24 05:01:50;;;;;;;0.45;0.40;;;19.30;99.90;;;;;;5034910;28;20096;-40
2023/09/24 05:04:17;;;;;;;1.15;0.55;;;19.30;99.90;;;;;;5034766;28;20021;-40
2023/09/24 05:06:43;;;;;;;3.13;0.50;;;19.30;99.90;;;;;;5034769;28;20021;-39
2023/09/24 05:09:08;;;;;;;0.98;0.60;;;19.30;99.90;;;;;;5034841;28;20029;-40
2023/09/24 05:11:34;;;;;;;1.35;0.70;;;19.30;99.90;;;;;;5034699;28;20057;-40
2023/09/24 05:14:00;;;;;;;0.68;0.50;;;19.20;99.90;;;;;;5034658;28;20022;-41
2023/09/24 05:16:26;;;;;;;0.98;0.60;;;19.20;99.90;;;;;;5034478;28;20386;-39
2023/09/24 05:18:52;;;;;;;1.02;0.80;;;19.20;99.90;;;;;;5034621;28;20079;-38
2023/09/24 05:21:18;;;;;;;1.42;0.60;;;19.20;99.90;;;;;;5034593;28;20125;-40
2023/09/24 05:23:45;;;;;;;1.55;0.47;;;19.20;99.90;;;;;;5034424;28;20033;-41
2023/09/24 05:26:14;;;;;;;1.20;0.50;;;19.30;99.90;;;;;;5034229;28;20848;-39
2023/09/24 05:28:41;;;;;;;2.75;0.63;;;19.20;99.90;;;;;;5034436;28;20044;-41
2023/09/24 05:31:07;;;;;;;1.10;0.52;;;19.20;99.90;;;;;;5034376;28;20391;-40
2023/09/24 05:33:33;;;;;;;0.55;0.45;;;19.20;99.90;;;;;;5034640;28;20174;-41
2023/09/24 05:35:59;;;;;;;0.93;0.57;;;19.20;99.90;;;;;;5034029;28;20516;-41
2023/09/24 05:38:29;;;;;;;1.15;0.55;;;19.20;99.90;;;;;;5034198;28;20036;-41
2023/09/24 05:40:55;;;;;;;0.50;0.40;;;19.20;99.90;;;;;;5034286;28;20478;-40
2023/09/24 05:43:22;;;;;;;0.90;0.50;;;19.20;99.90;;;;;;5034261;28;20071;-41
2023/09/24 05:45:49;;;;;;;0.90;0.30;;;19.20;99.90;;;;;;5033852;28;20033;-40
2023/09/24 05:48:15;;;;;;;0.80;0.60;;;19.20;99.90;;;;;;5034054;28;20030;-41
2023/09/24 05:50:44;;;;;;;1.20;0.50;;;19.20;99.90;;;;;;5034460;28;20375;-41
2023/09/24 05:53:11;;;;;;;1.35;0.50;;;19.20;99.90;;;;;;5033889;28;20028;-39
2023/09/24 05:55:37;;;;;;;1.42;0.50;;;19.20;99.90;;;;;;5033583;28;20032;-41
2023/09/24 05:58:06;;;;;;;1.38;0.50;;;19.20;99.90;;;;;;5033910;28;20021;-42
2023/09/24 06:00:35;;;;;;;1.10;0.57;;;19.20;99.90;;;;;;5033924;28;20092;-41
2023/09/24 06:03:01;;;;;;;0.95;0.60;;;19.10;99.90;;;;;;5033052;28;20406;-42
2023/09/24 06:05:28;;;;;;;1.77;0.60;;;19.20;99.90;;;;;;5034037;28;20049;-40
2023/09/24 06:07:53;;;;;;;0.57;0.40;;;19.20;99.90;;;;;;5033922;28;20045;-43
2023/09/24 06:10:20;;;;;;;4.72;0.90;;;19.20;99.90;;;;;;5015413;28;20508;-41
2023/09/24 06:12:46;;;;;;;3.50;0.60;;;19.10;97.70;;;;;;5032760;28;20025;-41
2023/09/24 06:15:13;;;;;;;3.05;0.50;;;18.20;96.40;;;;;;5032464;28;20385;-40
2023/09/24 06:17:40;;;;;;;1.58;0.50;;;17.40;97.50;;;;;;5032035;28;20025;-38
2023/09/24 06:20:06;;;;;;;3.72;0.80;;;16.60;98.50;;;;;;5033579;28;20045;-42
2023/09/24 06:22:32;;;;;;;3.88;0.45;;;16.30;99.50;;;;;;5033412;28;20101;-39
2023/09/24 06:24:58;;;;;;;2.35;0.50;;;16.40;99.90;;;;;;5033414;28;20561;-39
2023/09/24 06:27:23;;;;;;;1.95;0.60;;;16.60;99.90;;;;;;5033323;28;20103;-39
2023/09/24 06:29:49;;;;;;;4.43;0.63;;;16.90;99.90;;;;;;5033320;28;20028;-39
2023/09/24 06:32:15;;;;;;;0.38;0.28;;;17.10;99.90;;;;;;5033269;28;20430;-39
2023/09/24 06:34:40;;;;;;;3.38;0.70;;;17.30;99.90;;;;;;5032991;28;20052;-39
2023/09/24 06:37:06;;;;;;;1.48;0.43;;;17.50;99.90;;;;;;5033002;28;20044;-39
2023/09/24 06:39:33;;;;;;;0.60;0.40;;;17.70;99.80;;;;;;5033189;28;20039;-38
2023/09/24 06:42:00;;;;;;;1.55;0.40;;;17.90;99.80;;;;;;5033179;28;20033;-39
2023/09/24 06:44:26;;;;;;;1.42;0.60;;;17.90;99.80;;;;;;5032999;28;20021;-39
2023/09/24 06:46:52;;;;;;;0.77;0.40;;;18.10;99.80;;;;;;5033421;28;20048;-39
2023/09/24 06:49:18;;;;;;;0.80;0.50;;;18.20;99.80;;;;;;5032887;28;20396;-39
2023/09/24 06:51:44;;;;;;;1.00;0.40;;;18.30;99.80;;;;;;5032899;28;20482;-38
2023/09/24 06:54:09;;;;;;;1.08;0.38;;;18.30;99.80;;;;;;5032763;28;20033;-38
2023/09/24 06:56:35;;;;;;;0.82;0.60;;;18.40;99.80;;;;;;5032582;28;20033;-40
2023/09/24 06:59:01;;;;;;;0.85;0.50;;;18.50;99.90;;;;;;5032886;28;20108;-40
2023/09/24 07:01:27;;;;;;;0.70;0.45;;;18.50;99.90;;;;;;5032666;28;20018;-39
2023/09/24 07:03:53;;;;;;;1.02;0.40;;;18.60;99.90;;;;;;5032560;28;20021;-40
2023/09/24 07:06:21;;;;;;;1.48;0.55;;;18.70;99.90;;;;;;5032349;28;20025;-40
2023/09/24 07:08:46;;;;;;;0.82;0.45;;;18.70;99.90;;;;;;5032749;28;20398;-39
2023/09/24 07:11:38;;;;;;;1.48;0.50;;;18.80;99.90;;;;;;5032594;28;20651;-39
2023/09/24 07:14:05;;;;;;;0.82;0.40;;;18.90;99.90;;;;;;5027642;28;20045;-39
2023/09/24 07:16:32;;;;;;;1.23;0.43;;;18.90;99.70;;;;;;5032057;28;20033;-39
2023/09/24 07:18:58;;;;;;;0.85;0.40;;;19.00;99.90;;;;;;5032433;28;20025;-39
2023/09/24 07:21:26;;;;;;;0.80;0.55;;;19.00;99.90;;;;;;5032741;28;20097;-39
2023/09/24 07:23:54;;;;;;;0.80;0.30;;;19.10;99.90;;;;;;5032669;28;20033;-39
2023/09/24 07:26:20;;;;;;;0.77;0.50;;;19.10;99.90;;;;;;5032483;28;20402;-40
2023/09/24 07:28:46;;;;;;;1.13;0.50;;;19.10;99.90;;;;;;5032637;28;20030;-39
2023/09/24 07:31:22;;;;;;;0.60;0.32;;;19.20;99.90;;;;;;5032598;28;20026;-38
2023/09/24 07:33:55;;;;;;;1.77;0.50;;;19.20;99.90;;;;;;5032041;28;20397;-38
2023/09/24 07:36:22;;;;;;;1.17;0.60;;;19.30;99.90;;;;;;5031851;28;20466;-39
2023/09/24 07:38:50;;;;;;;0.85;0.45;;;19.30;99.90;;;;;;5032030;28;20033;-39
2023/09/24 07:41:17;;;;;;;0.88;0.52;;;19.30;99.90;;;;;;5031966;28;20025;-38
2023/09/24 07:43:42;;;;;;;0.95;0.43;;;19.30;99.90;;;;;;5031825;28;20390;-38
2023/09/24 07:46:14;;;;;;;0.60;0.40;;;19.40;99.90;;;;;;5031599;28;20037;-39
2023/09/24 07:48:43;;;;;;;1.27;0.60;;;19.40;99.90;;;;;;5032164;28;20108;-38
2023/09/24 07:51:12;;;;;;;2.28;0.55;;;19.40;99.90;;;;;;5031838;28;20028;-38
2023/09/24 07:53:38;;;;;;;1.02;0.35;;;19.50;99.90;;;;;;5031821;28;20033;-39
2023/09/24 07:56:09;;;;;;;1.70;0.50;;;19.50;99.90;;;;;;5031329;28;20033;-38
2023/09/24 07:58:36;;;;;;;0.95;0.45;;;19.50;99.90;;;;;;5031768;28;20047;-38
2023/09/24 08:01:04;;;;;;;0.73;0.40;;;19.60;99.90;;;;;;5031626;28;20037;-39
2023/09/24 08:03:30;;;;;;;1.77;0.52;;;19.60;99.90;;;;;;5031999;28;20025;-38
2023/09/24 08:05:57;;;;;;;0.73;0.50;;;19.60;99.90;;;;;;5031854;28;20379;-39
2023/09/24 08:08:23;;;;;;;1.02;0.50;;;19.70;99.90;;;;;;5031513;28;20033;-39
2023/09/24 08:10:50;;;;;;;1.58;0.80;;;19.70;99.90;;;;;;5031410;28;20029;-39
2023/09/24 08:13:16;;;;;;;0.90;0.45;;;19.70;99.90;;;;;;5031525;28;20072;-38
2023/09/24 08:15:42;;;;;;;2.88;0.50;;;19.70;99.90;;;;;;5031068;28;20489;-38
2023/09/24 08:18:09;;;;;;;0.57;0.40;;;19.70;99.90;;;;;;5031407;28;20025;-39
2023/09/24 08:20:36;;;;;;;1.08;0.45;;;19.80;99.90;;;;;;5031365;28;20032;-39
2023/09/24 08:23:03;;;;;;;1.60;0.57;;;19.70;99.90;;;;;;5031363;28;20021;-39
2023/09/24 08:25:28;;;;;;;1.17;0.60;;;19.80;99.90;;;;;;5030739;28;20033;-38
2023/09/24 08:27:54;;;;;;;0.60;0.40;;;19.80;99.90;;;;;;5031370;28;20413;-39
2023/09/24 08:30:20;;;;;;;0.50;0.30;;;19.90;99.90;;;;;;5031268;28;20032;-38
2023/09/24 08:32:45;;;;;;;1.60;0.65;;;19.90;99.90;;;;;;5031255;28;20487;-38
2023/09/24 08:35:11;;;;;;;1.33;0.70;;;19.90;99.90;;;;;;5013331;28;20112;-39
2023/09/24 08:37:36;;;;;;;0.68;0.50;;;19.90;99.90;;;;;;5031012;28;20045;-38
2023/09/24 08:40:03;;;;;;;1.02;0.50;;;19.90;99.90;;;;;;5031208;28;20048;-38
2023/09/24 08:42:31;;;;;;;0.80;0.50;;;20.00;99.90;;;;;;5031164;28;20056;-39
2023/09/24 08:45:13;;;;;;;1.75;0.55;;;19.90;99.90;;;;;;5029615;28;20053;-39
2023/09/24 08:47:39;;;;;;;1.52;0.70;;;20.00;99.90;;;;;;5031041;28;20044;-38
2023/09/24 08:50:06;;;;;;;1.45;0.45;;;20.00;99.90;;;;;;5031055;28;20411;-38
2023/09/24 08:52:34;;;;;;;1.45;0.70;;;20.00;99.90;;;;;;5031251;28;20386;-38
2023/09/24 08:55:00;;;;;;;2.03;0.50;;;20.00;99.90;;;;;;5030827;28;20037;-38
2023/09/24 08:57:26;;;;;;;0.93;0.50;;;20.10;99.90;;;;;;5030993;28;20371;-39
2023/09/24 08:59:51;;;;;;;2.03;0.70;;;20.10;99.90;;;;;;5031047;28;20030;-38
2023/09/24 09:02:17;;;;;;;0.85;0.50;;;20.10;99.90;;;;;;5031034;28;20037;-38
2023/09/24 09:04:50;;;;;;;1.10;0.50;;;20.10;99.90;;;;;;5030720;28;20052;-39
2023/09/24 09:07:16;;;;;;;1.08;0.57;;;20.10;99.90;;;;;;5030918;28;20033;-38
2023/09/24 09:09:52;;;;;;;1.70;0.60;;;20.10;99.90;;;;;;5030996;28;20021;-38
2023/09/24 09:12:19;;;;;;;1.17;0.50;;;20.20;99.90;;;;;;5031073;28;20048;-38
2023/09/24 09:14:44;;;;;;;0.82;0.40;;;20.20;99.90;;;;;;5030627;28;20509;-39
2023/09/24 09:17:10;;;;;;;0.73;0.40;;;20.20;99.90;;;;;;5030647;28;20029;-39
2023/09/24 09:19:49;;;;;;;1.42;0.50;;;20.20;99.90;;;;;;5030791;28;20025;-39
2023/09/24 09:22:20;;;;;;;1.58;0.63;;;20.30;99.90;;;;;;5030844;28;20367;-39
2023/09/24 09:24:48;;;;;;;0.95;0.70;;;20.30;99.90;;;;;;5030765;28;20029;-39
2023/09/24 09:27:14;;;;;;;1.02;0.57;;;20.30;99.90;;;;;;5030764;28;20021;-38
2023/09/24 09:29:39;;;;;;;1.10;0.82;;;20.30;99.90;;;;;;5030773;28;20030;-38
2023/09/24 09:32:05;;;;;;;2.45;0.73;;;20.30;99.90;;;;;;5030762;28;20034;-38
2023/09/24 09:34:31;;;;;;;1.67;0.70;;;20.40;99.90;;;;;;5030830;28;20029;-38
2023/09/24 09:37:16;;;;;;;0.70;0.40;;;20.40;99.90;;;;;;5030668;28;20026;-39
2023/09/24 09:39:42;;;;;;;0.55;0.40;;;20.40;99.90;;;;;;5034373;28;20103;-38
2023/09/24 09:42:14;;;;;;;0.75;0.50;;;20.40;99.90;;;;;;5034192;28;20021;-39
2023/09/24 09:44:42;;;;;;;1.13;0.70;;;20.40;99.90;;;;;;5049742;23;20042;-39
2023/09/24 09:47:10;;;;;;;1.05;0.50;;;20.40;99.90;;;;;;4996578;28;20066;-40
2023/09/24 09:49:41;;;;;;;0.85;0.50;;;20.50;99.90;;;;;;5014191;28;20026;-40
2023/09/24 09:52:08;;;;;;;1.05;0.52;;;20.50;99.90;;;;;;5014345;28;20112;-42
2023/09/24 09:54:37;;;;;;;1.13;0.40;;;20.50;99.90;;;;;;5014054;28;20022;-40
2023/09/24 09:57:04;;;;;;;2.30;0.82;;;20.50;99.90;;;;;;5013909;28;20038;-39
2023/09/24 09:59:34;;;;;;;1.33;0.60;;;20.50;99.90;;;;;;5014523;28;20046;-38
2023/09/24 10:02:01;;;;;;;1.10;0.63;;;20.50;99.90;;;;;;5014297;28;20033;-40
2023/09/24 10:04:30;;;;;;;2.40;0.60;;;20.60;99.90;;;;;;5014003;28;20029;-39
2023/09/24 10:06:56;;;;;;;1.42;0.70;;;20.50;99.90;;;;;;5013998;28;20048;-43
2023/09/24 10:09:27;;;;;;;1.25;0.68;;;20.50;99.90;;;;;;5013924;28;20026;-38
2023/09/24 10:11:56;;;;;;;1.08;0.43;;;20.50;99.90;;;;;;5014187;28;20030;-43
2023/09/24 10:14:38;;;;;;;0.85;0.60;;;20.60;99.90;;;;;;5014308;28;20060;-40
2023/09/24 10:17:16;;;;;;;1.50;0.73;;;20.60;99.90;;;;;;5015041;28;20430;-39
2023/09/24 10:20:01;;;;;;;1.13;0.70;;;20.60;99.90;;;;;;5013985;28;20471;-37
2023/09/24 10:22:28;;;;;;;;;;;20.60;99.90;;;;;;5014206;28;20030;-40
2023/09/24 10:24:54;;;;;;;1.00;0.63;;;20.60;99.90;;;;;;5013544;28;19905;-39
2023/09/24 10:27:23;;;;;;;0.80;0.55;;;20.60;99.90;;;;;;5013613;28;20042;-44
2023/09/24 10:29:53;;;;;;;1.65;0.60;;;20.60;99.90;;;;;;5013593;28;20030;-39
2023/09/24 10:32:21;;;;;;;0.90;0.60;;;20.60;99.90;;;;;;5013561;28;20516;-37
2023/09/24 10:34:53;;;;;;;1.83;0.65;;;20.70;99.90;;;;;;5013789;28;20038;-40
2023/09/24 10:37:19;;;;;;;2.00;0.70;;;20.70;99.90;;;;;;5013497;28;20026;-39
2023/09/24 10:40:04;;;;;;;1.58;0.57;;;20.70;99.90;;;;;;5013471;28;20104;-40
2023/09/24 10:42:34;;;;;;;3.22;1.02;;;20.70;99.90;;;;;;5013330;28;20046;-43
2023/09/24 10:45:12;;;;;;;0.85;0.60;;;20.70;99.90;;;;;;5012930;28;20045;-39
2023/09/24 10:47:45;;;;;;;1.55;0.80;;;20.80;99.90;;;;;;5013221;28;20563;-39
2023/09/24 10:50:15;;;;;;;1.63;0.68;;;20.80;99.90;;;;;;5013006;28;20465;-39
2023/09/24 10:53:02;;;;;;;1.92;0.57;;;20.80;99.90;;;;;;5013233;28;20076;-39
2023/09/24 10:55:28;;;;;;;2.15;0.85;;;20.80;99.90;;;;;;5012780;28;20018;-39
2023/09/24 10:57:54;;;;;;;1.48;0.68;;;20.80;99.90;;;;;;5013029;28;20025;-40
2023/09/24 11:00:22;;;;;;;2.15;0.70;;;20.80;99.90;;;;;;5012988;28;20032;-39
2023/09/24 11:02:58;;;;;;;1.38;0.70;;;20.80;99.90;;;;;;5013458;28;20026;-40
2023/09/24 11:05:24;;;;;;;1.02;0.70;;;20.90;99.90;;;;;;5012701;28;20148;-39
2023/09/24 11:07:50;;;;;;;1.27;0.60;;;20.90;99.90;;;;;;5012815;28;20569;-39
2023/09/24 11:10:20;;;;;;;1.23;0.70;;;20.80;99.90;;;;;;5012892;28;20101;-38
2023/09/24 11:12:57;;;;;;;1.80;0.80;;;20.90;99.90;;;;;;5012832;28;20084;-36
2023/09/24 11:15:24;;;;;;;1.25;0.50;;;20.90;99.90;;;;;;5012581;28;20152;-38
2023/09/24 11:17:51;;;;;;;1.52;0.80;;;20.90;99.90;;;;;;5013008;28;20364;-39
2023/09/24 11:20:20;;;;;;;1.23;0.60;;;20.90;99.90;;;;;;5012939;28;20442;-37
2023/09/24 11:22:59;;;;;;;1.25;0.60;;;21.00;99.90;;;;;;5012633;28;20076;-40
2023/09/24 11:25:25;;;;;;;2.03;0.70;;;20.90;99.90;;;;;;5012340;28;20022;-42
2023/09/24 11:27:53;;;;;;;1.58;0.75;;;20.90;99.90;;;;;;5012881;28;20092;-40
2023/09/24 11:30:23;;;;;;;1.55;0.77;;;20.90;99.90;;;;;;5012538;28;20022;-39
2023/09/24 11:32:51;;;;;;;1.10;0.70;;;20.90;99.90;;;;;;4994658;28;20022;-39
2023/09/24 11:35:19;;;;;;;1.73;0.60;;;20.90;99.90;;;;;;5012306;28;20041;-37
2023/09/24 11:37:54;;;;;;;1.50;0.77;;;20.90;99.90;;;;;;5012367;28;20053;-39
2023/09/24 11:40:42;;;;;;;2.25;0.90;;;20.90;99.90;;;;;;5012328;28;20389;-39
2023/09/24 11:43:11;;;;;;;2.95;1.00;;;20.80;99.90;;;;;;5012251;28;20478;-40
2023/09/24 11:45:55;;;;;;;1.05;0.60;;;20.80;99.90;;;;;;5011951;28;20044;-37
2023/09/24 11:48:26;;;;;;;1.85;0.82;;;20.80;99.90;;;;;;5012269;28;20026;-45
2023/09/24 11:50:54;;;;;;;1.30;0.65;;;20.80;99.90;;;;;;5012169;28;20022;-40
2023/09/24 11:53:22;;;;;;;1.10;0.60;;;20.80;99.90;;;;;;5012116;28;20045;-40
2023/09/24 11:55:48;;;;;;;2.00;0.70;;;20.80;99.90;;;;;;5011743;28;20395;-39
2023/09/24 11:58:14;;;;;;;1.48;0.60;;;20.90;99.90;;;;;;5011999;28;20030;-41
2023/09/24 12:00:43;;;;;;;1.60;0.73;;;20.80;99.90;;;;;;5011380;28;20486;-41
2023/09/24 12:03:09;;;;;;;2.38;0.80;;;20.80;99.90;;;;;;5011952;28;20018;-39
2023/09/24 12:05:35;;;;;;;2.15;1.00;;;20.90;99.90;;;;;;5012299;28;20036;-39
2023/09/24 12:08:06;;;;;;;1.77;0.88;;;20.90;99.90;;;;;;5011973;28;20030;-38
2023/09/24 12:10:40;;;;;;;2.10;0.65;;;20.90;99.90;;;;;;5011881;28;20388;-39
2023/09/24 12:13:09;;;;;;;0.85;0.50;;;20.90;99.90;;;;;;5012314;28;20036;-37
2023/09/24 12:15:36;;;;;;;1.67;0.80;;;20.90;99.90;;;;;;5011770;28;20029;-41
2023/09/24 12:18:04;;;;;;;0.88;0.68;;;20.90;99.90;;;;;;5012230;28;20026;-40
2023/09/24 12:20:34;;;;;;;1.42;0.68;;;20.90;99.90;;;;;;5011608;28;20502;-39
2023/09/24 12:23:04;;;;;;;1.85;0.90;;;21.00;99.90;;;;;;5011987;28;20529;-48
2023/09/24 12:25:29;;;;;;;1.85;0.65;;;21.00;99.90;;;;;;5011356;28;20483;-40
2023/09/24 12:27:55;;;;;;;1.85;0.70;;;20.90;99.90;;;;;;5011641;28;20065;-42
2023/09/24 12:30:21;;;;;;;1.58;0.90;;;20.90;99.90;;;;;;5011619;28;20115;-39
2023/09/24 12:32:46;;;;;;;1.55;0.75;;;21.00;99.90;;;;;;5011686;28;20038;-39
2023/09/24 12:35:12;;;;;;;1.58;0.82;;;20.90;99.90;;;;;;5011380;28;20083;-38
2023/09/24 12:37:39;;;;;;;1.42;0.80;;;21.00;99.90;;;;;;5011725;28;20022;-39
2023/09/24 12:40:08;;;;;;;2.20;1.08;;;20.90;99.90;;;;;;5011446;28;20050;-40
2023/09/24 12:42:42;;;;;;;1.73;0.77;;;21.00;99.90;;;;;;5011484;28;20049;-40
2023/09/24 12:45:10;;;;;;;1.33;0.93;;;21.00;99.90;;;;;;5011255;28;20030;-37
2023/09/24 12:47:37;;;;;;;1.00;0.85;;;21.00;99.90;;;;;;5011380;28;20022;-40
2023/09/24 12:50:13;;;;;;;2.78;1.00;;;21.00;99.90;;;;;;5011574;28;20025;-40